createdAt,value
2019-01-30T00:02:02.624Z,-1.90
2019-01-30T00:04:32.624Z,-1.80
2019-01-30T00:07:02.499Z,-1.70
2019-01-30T00:09:32.614Z,-1.90
2019-01-30T00:12:02.624Z,-1.90
2019-01-30T00:14:32.543Z,-1.90
2019-01-30T00:17:02.416Z,-1.90
2019-01-30T00:19:32.445Z,-1.90
2019-01-30T00:22:02.846Z,-1.90
2019-01-30T00:24:32.815Z,-2.00
2019-01-30T00:27:02.760Z,-2.00
2019-01-30T00:29:32.695Z,-2.00
2019-01-30T00:32:02.771Z,-2.10
2019-01-30T00:34:32.699Z,-2.10
2019-01-30T00:37:02.567Z,-2.10
2019-01-30T00:39:32.791Z,-2.10
2019-01-30T00:42:02.765Z,-2.10
2019-01-30T00:44:32.891Z,-2.10
2019-01-30T00:47:03.745Z,-2.10
2019-01-30T00:49:33.620Z,-2.20
2019-01-30T00:52:03.644Z,-2.20
2019-01-30T00:54:33.544Z,-2.20
2019-01-30T00:57:03.559Z,-2.20
2019-01-30T00:59:33.581Z,-2.30
2019-01-30T01:02:03.574Z,-2.30
2019-01-30T01:04:33.706Z,-2.20
2019-01-30T01:07:03.887Z,-2.30
2019-01-30T01:09:33.846Z,-2.30
2019-01-30T01:12:06.192Z,-2.40
2019-01-30T01:14:36.544Z,-2.50
2019-01-30T01:17:06.684Z,-2.50
2019-01-30T01:19:36.597Z,-2.60
2019-01-30T01:22:06.854Z,-2.70
2019-01-30T01:24:36.819Z,-2.70
2019-01-30T01:27:07.016Z,-2.80
2019-01-30T01:29:36.929Z,-2.60
2019-01-30T01:32:07.005Z,-2.60
2019-01-30T01:34:36.913Z,-2.70
2019-01-30T01:37:07.648Z,-2.60
2019-01-30T01:39:37.583Z,-2.60
2019-01-30T01:42:07.642Z,-2.70
2019-01-30T01:44:37.614Z,-2.70
2019-01-30T01:47:07.655Z,-2.70
2019-01-30T01:49:37.561Z,-2.70
2019-01-30T01:52:07.619Z,-2.50
2019-01-30T01:54:41.700Z,-2.60
2019-01-30T01:57:12.072Z,-2.70
2019-01-30T01:59:42.046Z,-2.70
2019-01-30T02:02:12.384Z,-2.70
2019-01-30T02:04:42.502Z,-2.70
2019-01-30T02:07:12.668Z,-2.80
2019-01-30T02:09:42.617Z,-2.90
2019-01-30T02:12:12.549Z,-2.70
2019-01-30T02:14:42.488Z,-2.70
2019-01-30T02:17:12.455Z,-2.80
2019-01-30T02:19:42.359Z,-2.60
2019-01-30T02:22:12.315Z,-2.80
2019-01-30T02:24:42.274Z,-2.90
2019-01-30T02:27:12.587Z,-3.00
2019-01-30T02:29:42.586Z,-2.90
2019-01-30T02:32:12.783Z,-2.80
2019-01-30T02:34:42.691Z,-2.90
2019-01-30T02:37:12.770Z,-2.90
2019-01-30T02:40:01.959Z,-3.00
2019-01-30T02:42:31.855Z,-3.10
2019-01-30T02:45:02.615Z,-3.00
2019-01-30T02:47:32.699Z,-3.20
2019-01-30T02:50:02.672Z,-3.10
2019-01-30T02:52:32.634Z,-3.10
2019-01-30T02:55:02.635Z,-3.20
2019-01-30T02:57:32.541Z,-3.20
2019-01-30T03:00:02.537Z,-3.10
2019-01-30T03:02:32.586Z,-3.10
2019-01-30T03:05:02.503Z,-3.00
2019-01-30T03:07:32.477Z,-3.10
2019-01-30T03:10:02.532Z,-3.20
2019-01-30T03:12:32.546Z,-3.20
2019-01-30T03:15:02.562Z,-3.30
2019-01-30T03:17:32.514Z,-3.40
2019-01-30T03:20:02.506Z,-3.20
2019-01-30T03:22:32.389Z,-3.30
2019-01-30T03:25:02.368Z,-3.20
2019-01-30T03:27:33.543Z,-3.30
2019-01-30T03:30:03.873Z,-3.40
2019-01-30T03:32:33.892Z,-3.40
2019-01-30T03:35:04.174Z,-3.30
2019-01-30T03:37:34.281Z,-3.50
2019-01-30T03:40:05.538Z,-3.60
2019-01-30T03:42:35.565Z,-3.60
2019-01-30T03:45:07.809Z,-3.50
2019-01-30T03:47:37.710Z,-3.50
2019-01-30T03:50:09.263Z,-3.60
2019-01-30T03:52:40.092Z,-3.50
2019-01-30T03:55:11.990Z,-3.70
2019-01-30T03:57:42.119Z,-3.60
2019-01-30T04:00:24.474Z,-3.60
2019-01-30T04:02:55.124Z,-3.60
2019-01-30T04:05:30.255Z,-3.60
2019-01-30T04:08:02.733Z,-3.80
2019-01-30T04:10:35.438Z,-3.80
2019-01-30T04:13:05.563Z,-3.80
2019-01-30T04:15:35.700Z,-3.60
2019-01-30T04:18:05.858Z,-3.70
2019-01-30T04:20:35.843Z,-3.60
2019-01-30T04:23:06.211Z,-3.60
2019-01-30T04:25:36.123Z,-3.60
2019-01-30T04:28:06.157Z,-3.50
2019-01-30T04:30:36.082Z,-3.60
2019-01-30T04:33:06.152Z,-3.70
2019-01-30T04:35:36.057Z,-3.70
2019-01-30T04:38:06.217Z,-3.70
2019-01-30T04:40:36.148Z,-3.70
2019-01-30T04:43:06.114Z,-3.80
2019-01-30T04:45:38.989Z,-3.80
2019-01-30T04:48:10.321Z,-3.70
2019-01-30T04:50:42.085Z,-3.70
2019-01-30T04:53:12.577Z,-3.80
2019-01-30T04:55:42.572Z,-3.90
2019-01-30T04:58:14.741Z,-3.70
2019-01-30T05:00:44.923Z,-3.80
2019-01-30T05:03:15.624Z,-3.80
2019-01-30T05:05:45.653Z,-3.70
2019-01-30T05:08:15.621Z,-3.80
2019-01-30T05:10:45.659Z,-3.70
2019-01-30T05:13:15.621Z,-3.70
2019-01-30T05:15:45.538Z,-3.60
2019-01-30T05:18:16.047Z,-3.60
2019-01-30T05:20:45.966Z,-3.80
2019-01-30T05:23:15.917Z,-3.70
2019-01-30T05:25:45.885Z,-3.60
2019-01-30T05:28:15.987Z,-3.60
2019-01-30T05:30:45.954Z,-3.70
2019-01-30T05:33:15.902Z,-3.60
2019-01-30T05:35:45.986Z,-3.70
2019-01-30T05:38:15.903Z,-3.80
2019-01-30T05:40:45.960Z,-3.60
2019-01-30T05:43:18.029Z,-3.50
2019-01-30T05:45:48.069Z,-3.40
2019-01-30T05:48:20.240Z,-3.50
2019-01-30T05:50:50.230Z,-3.50
2019-01-30T05:53:20.224Z,-3.50
2019-01-30T05:55:50.337Z,-3.40
2019-01-30T05:58:20.217Z,-3.40
2019-01-30T06:00:50.275Z,-3.60
2019-01-30T06:03:20.335Z,-3.60
2019-01-30T06:05:50.368Z,-3.60
2019-01-30T06:08:20.279Z,-3.60
2019-01-30T06:10:50.433Z,-3.60
2019-01-30T06:13:20.319Z,-3.60
2019-01-30T06:15:50.283Z,-3.60
2019-01-30T06:18:20.250Z,-3.40
2019-01-30T06:20:50.394Z,-3.40
2019-01-30T06:23:20.545Z,-3.30
2019-01-30T06:25:50.508Z,-3.20
2019-01-30T06:28:20.508Z,-3.20
2019-01-30T06:30:50.389Z,-3.10
2019-01-30T06:33:20.369Z,-3.00
2019-01-30T06:35:50.325Z,-3.00
2019-01-30T06:38:20.232Z,-0.70
2019-01-30T06:40:50.210Z,-0.30
2019-01-30T06:43:20.209Z,-1.40
2019-01-30T06:45:50.122Z,-2.00
2019-01-30T06:48:20.532Z,-2.30
2019-01-30T06:50:50.517Z,-2.50
2019-01-30T06:53:20.543Z,-2.70
2019-01-30T06:55:50.432Z,-2.70
2019-01-30T06:58:20.335Z,-2.60
2019-01-30T07:00:52.739Z,-2.70
2019-01-30T07:03:22.293Z,-2.60
2019-01-30T07:05:52.298Z,-2.70
2019-01-30T07:08:22.685Z,-2.60
2019-01-30T07:10:52.781Z,-2.50
2019-01-30T07:13:24.139Z,-2.50
2019-01-30T07:15:54.193Z,-2.60
2019-01-30T07:18:24.196Z,-2.60
2019-01-30T07:20:54.278Z,-2.60
2019-01-30T07:23:24.187Z,-2.50
2019-01-30T07:25:54.122Z,-2.50
2019-01-30T07:28:24.143Z,-2.40
2019-01-30T07:30:54.275Z,-2.20
2019-01-30T07:33:24.432Z,-2.10
2019-01-30T07:35:54.373Z,-2.30
2019-01-30T07:38:24.367Z,-2.30
2019-01-30T07:40:54.333Z,-2.30
2019-01-30T07:43:24.315Z,-2.20
2019-01-30T07:45:54.294Z,-2.30
2019-01-30T07:48:27.188Z,-2.30
2019-01-30T07:50:56.216Z,-2.30
2019-01-30T07:53:26.196Z,-2.20
2019-01-30T07:55:56.209Z,-2.10
2019-01-30T07:58:26.126Z,-2.10
2019-01-30T08:00:56.144Z,-2.00
2019-01-30T08:03:26.020Z,-1.90
2019-01-30T08:05:55.994Z,-1.80
2019-01-30T08:08:26.003Z,-1.60
2019-01-30T08:10:56.015Z,-1.60
2019-01-30T08:13:26.131Z,-1.70
2019-01-30T08:15:56.132Z,-1.50
2019-01-30T08:18:26.190Z,-1.60
2019-01-30T08:20:56.091Z,-1.50
2019-01-30T08:23:26.341Z,-1.40
2019-01-30T08:25:56.476Z,-1.20
2019-01-30T08:28:26.967Z,-1.10
2019-01-30T08:30:58.007Z,-1.00
2019-01-30T08:33:27.949Z,-1.10
2019-01-30T08:35:58.406Z,-1.00
2019-01-30T08:38:28.570Z,-0.90
2019-01-30T08:40:58.522Z,-0.90
2019-01-30T08:43:28.543Z,-1.10
2019-01-30T08:45:58.461Z,-0.90
2019-01-30T08:48:30.178Z,-1.00
2019-01-30T08:51:00.248Z,-0.80
2019-01-30T08:53:30.279Z,-0.70
2019-01-30T08:56:01.643Z,-0.70
2019-01-30T08:58:31.726Z,-0.80
2019-01-30T09:01:01.783Z,-0.80
2019-01-30T09:03:31.682Z,-0.70
2019-01-30T09:06:01.705Z,-0.50
2019-01-30T09:08:31.778Z,-0.30
2019-01-30T09:11:02.036Z,-0.40
2019-01-30T09:13:32.072Z,-0.40
2019-01-30T09:16:01.999Z,-0.30
2019-01-30T09:18:32.168Z,-0.40
2019-01-30T09:21:03.063Z,-0.30
2019-01-30T09:23:33.170Z,0.10
2019-01-30T09:26:03.232Z,0.30
2019-01-30T09:28:33.243Z,0.30
2019-01-30T09:31:03.585Z,0.20
2019-01-30T09:33:33.528Z,0.40
2019-01-30T09:36:03.555Z,0.40
2019-01-30T09:38:33.777Z,0.30
2019-01-30T09:41:03.890Z,0.20
2019-01-30T09:43:33.831Z,0.40
2019-01-30T09:46:05.415Z,0.20
2019-01-30T09:48:36.986Z,0.40
2019-01-30T09:51:07.041Z,0.40
2019-01-30T09:53:37.103Z,0.60
2019-01-30T09:56:07.202Z,0.70
2019-01-30T09:58:37.112Z,0.60
2019-01-30T10:01:07.453Z,0.80
2019-01-30T10:03:37.351Z,0.90
2019-01-30T10:06:08.639Z,0.70
2019-01-30T10:08:38.531Z,0.70
2019-01-30T10:11:10.036Z,0.50
2019-01-30T10:13:39.961Z,0.60
2019-01-30T10:16:10.283Z,0.60
2019-01-30T10:18:40.314Z,0.70
2019-01-30T10:21:10.463Z,0.70
2019-01-30T10:23:40.508Z,0.80
2019-01-30T10:26:10.937Z,0.90
2019-01-30T10:28:41.087Z,1.10
2019-01-30T10:31:11.031Z,1.30
2019-01-30T10:33:46.644Z,1.30
2019-01-30T10:36:12.758Z,1.40
2019-01-30T10:38:42.834Z,1.40
2019-01-30T10:41:12.914Z,1.50
2019-01-30T10:43:42.976Z,1.50
2019-01-30T10:46:12.864Z,1.70
2019-01-30T10:48:42.749Z,1.70
2019-01-30T10:51:12.796Z,1.70
2019-01-30T10:53:48.128Z,1.70
2019-01-30T10:56:18.888Z,1.60
2019-01-30T10:58:48.858Z,1.50
2019-01-30T11:01:18.920Z,1.70
2019-01-30T11:03:57.006Z,1.60
2019-01-30T11:06:20.917Z,1.70
2019-01-30T11:08:50.822Z,1.80
2019-01-30T11:11:20.789Z,2.10
2019-01-30T11:13:50.843Z,2.10
2019-01-30T11:16:20.937Z,2.20
2019-01-30T11:18:52.560Z,2.70
2019-01-30T11:21:23.367Z,2.70
2019-01-30T11:23:53.552Z,2.80
2019-01-30T11:26:24.693Z,3.10
2019-01-30T11:28:54.601Z,3.40
2019-01-30T11:31:24.743Z,3.40
2019-01-30T11:33:54.657Z,3.40
2019-01-30T11:36:24.560Z,3.60
2019-01-30T11:38:54.459Z,3.70
2019-01-30T11:41:24.376Z,3.90
2019-01-30T11:43:55.353Z,4.00
2019-01-30T11:46:25.296Z,4.20
2019-01-30T11:48:56.490Z,4.50
2019-01-30T11:51:26.993Z,4.60
2019-01-30T11:53:57.048Z,4.80
2019-01-30T11:56:27.120Z,4.50
2019-01-30T11:58:57.096Z,4.60
2019-01-30T12:01:27.156Z,4.80
2019-01-30T12:03:57.210Z,5.10
2019-01-30T12:06:27.206Z,5.10
2019-01-30T12:08:57.388Z,5.20
2019-01-30T12:11:28.073Z,5.00
2019-01-30T12:13:58.632Z,4.80
2019-01-30T12:16:28.577Z,4.80
2019-01-30T12:18:58.504Z,4.90
2019-01-30T12:21:28.510Z,5.10
2019-01-30T12:23:58.469Z,5.30
2019-01-30T12:26:28.340Z,5.30
2019-01-30T12:28:58.203Z,5.50
2019-01-30T12:31:28.174Z,5.40
2019-01-30T12:33:59.181Z,5.40
2019-01-30T12:36:29.221Z,5.40
2019-01-30T12:38:59.213Z,5.50
2019-01-30T12:41:29.106Z,5.20
2019-01-30T12:43:59.105Z,5.00
2019-01-30T12:46:29.115Z,4.90
2019-01-30T12:48:59.154Z,5.00
2019-01-30T12:51:29.236Z,4.90
2019-01-30T12:53:59.182Z,5.00
2019-01-30T12:56:29.220Z,4.90
2019-01-30T12:59:00.593Z,5.10
2019-01-30T13:01:30.980Z,5.30
2019-01-30T13:04:01.161Z,4.90
2019-01-30T13:06:31.049Z,5.10
2019-01-30T13:09:01.105Z,5.10
2019-01-30T13:11:31.265Z,5.30
2019-01-30T13:14:01.216Z,5.20
2019-01-30T13:16:31.993Z,5.30
2019-01-30T13:19:09.731Z,5.20
2019-01-30T13:21:39.887Z,5.20
2019-01-30T13:24:09.811Z,5.10
2019-01-30T13:26:39.789Z,5.10
2019-01-30T13:29:09.739Z,5.30
2019-01-30T13:31:39.596Z,5.20
2019-01-30T13:34:09.970Z,5.00
2019-01-30T13:36:40.420Z,5.00
2019-01-30T13:39:11.389Z,4.80
2019-01-30T13:41:42.901Z,4.70
2019-01-30T13:44:12.995Z,5.00
2019-01-30T13:46:42.939Z,5.10
2019-01-30T13:49:12.892Z,5.00
2019-01-30T13:51:43.018Z,4.70
2019-01-30T13:54:13.175Z,4.90
2019-01-30T13:56:43.292Z,4.90
2019-01-30T13:59:14.256Z,4.90
2019-01-30T14:01:44.359Z,4.90
2019-01-30T14:04:14.263Z,4.80
2019-01-30T14:06:44.886Z,4.80
2019-01-30T14:09:14.874Z,4.80
2019-01-30T14:11:44.921Z,4.70
2019-01-30T14:14:14.907Z,4.80
2019-01-30T14:16:44.851Z,4.70
2019-01-30T14:19:14.911Z,4.80
2019-01-30T14:21:45.137Z,4.80
2019-01-30T14:24:15.085Z,4.80
2019-01-30T14:26:44.964Z,4.80
2019-01-30T14:29:14.968Z,4.90
2019-01-30T14:31:45.949Z,4.90
2019-01-30T14:34:15.949Z,4.80
2019-01-30T14:36:45.857Z,4.70
2019-01-30T14:39:15.815Z,4.60
2019-01-30T14:41:45.854Z,4.50
2019-01-30T14:44:15.729Z,4.50
2019-01-30T14:46:45.677Z,4.50
2019-01-30T14:49:15.566Z,4.40
2019-01-30T14:51:45.614Z,4.20
2019-01-30T14:54:15.527Z,4.10
2019-01-30T14:56:46.819Z,4.20
2019-01-30T14:59:16.813Z,4.20
2019-01-30T15:01:47.146Z,4.10
2019-01-30T15:04:17.095Z,4.10
2019-01-30T15:06:46.983Z,4.10
2019-01-30T15:09:16.954Z,4.20
2019-01-30T15:11:46.880Z,4.10
2019-01-30T15:14:16.739Z,4.10
2019-01-30T15:16:46.770Z,4.00
2019-01-30T15:19:16.757Z,3.90
2019-01-30T15:21:48.022Z,3.90
2019-01-30T15:24:18.452Z,3.80
2019-01-30T15:26:48.411Z,3.90
2019-01-30T15:29:18.590Z,3.80
2019-01-30T15:31:48.708Z,3.70
2019-01-30T15:34:18.683Z,3.70
2019-01-30T15:36:48.542Z,3.70
2019-01-30T15:39:18.676Z,3.80
2019-01-30T15:41:48.596Z,3.70
2019-01-30T15:44:18.580Z,3.70
2019-01-30T15:46:48.604Z,3.60
2019-01-30T15:49:18.646Z,3.60
2019-01-30T15:51:48.692Z,3.60
2019-01-30T15:54:18.970Z,3.50
2019-01-30T15:56:48.999Z,3.50
2019-01-30T15:59:18.900Z,3.40
2019-01-30T16:01:49.176Z,3.40
2019-01-30T16:04:19.136Z,3.40
2019-01-30T16:06:49.080Z,3.40
2019-01-30T16:09:18.989Z,3.40
2019-01-30T16:11:50.512Z,3.40
2019-01-30T16:14:20.591Z,3.30
2019-01-30T16:16:50.534Z,3.30
2019-01-30T16:19:20.422Z,3.30
2019-01-30T16:21:50.616Z,3.30
2019-01-30T16:24:20.553Z,3.30
2019-01-30T16:26:50.572Z,3.20
2019-01-30T16:29:20.565Z,3.00
2019-01-30T16:31:50.707Z,3.10
2019-01-30T16:34:23.600Z,3.20
2019-01-30T16:36:53.602Z,3.20
2019-01-30T16:39:23.562Z,3.10
2019-01-30T16:41:53.508Z,3.00
2019-01-30T16:44:23.461Z,3.10
2019-01-30T16:46:53.372Z,3.10
2019-01-30T16:49:23.372Z,3.00
2019-01-30T16:51:53.347Z,2.90
2019-01-30T16:54:23.441Z,3.00
2019-01-30T16:56:53.463Z,3.00
2019-01-30T16:59:23.453Z,3.10
2019-01-30T17:01:53.547Z,3.00
2019-01-30T17:04:23.663Z,3.00
2019-01-30T17:06:53.549Z,3.00
2019-01-30T17:09:23.959Z,3.10
2019-01-30T17:11:53.848Z,3.00
2019-01-30T17:14:23.745Z,3.00
2019-01-30T17:16:53.721Z,2.90
2019-01-30T17:19:23.698Z,3.00
2019-01-30T17:21:53.758Z,3.00
2019-01-30T17:24:24.643Z,2.90
2019-01-30T17:26:54.673Z,2.90
2019-01-30T17:29:24.621Z,2.90
2019-01-30T17:31:54.528Z,2.90
2019-01-30T17:34:24.575Z,2.90
2019-01-30T17:36:54.659Z,2.80
2019-01-30T17:39:24.528Z,2.80
2019-01-30T17:41:54.516Z,2.80
2019-01-30T17:44:24.421Z,2.80
2019-01-30T17:46:54.500Z,2.80
2019-01-30T17:49:24.362Z,2.70
2019-01-30T17:51:54.523Z,2.80
2019-01-30T17:54:24.485Z,2.80
2019-01-30T17:56:54.440Z,2.80
2019-01-30T17:59:25.680Z,2.70
2019-01-30T18:01:55.743Z,2.70
2019-01-30T18:04:25.709Z,2.70
2019-01-30T18:06:55.681Z,2.60
2019-01-30T18:09:25.583Z,2.60
2019-01-30T18:11:55.470Z,2.70
2019-01-30T18:14:25.508Z,2.70
2019-01-30T18:16:57.507Z,2.70
2019-01-30T18:19:28.238Z,2.50
2019-01-30T18:21:58.214Z,2.50
2019-01-30T18:24:28.129Z,2.60
2019-01-30T18:26:58.324Z,2.60
2019-01-30T18:29:28.285Z,2.70
2019-01-30T18:31:58.251Z,2.70
2019-01-30T18:34:28.189Z,2.70
2019-01-30T18:37:04.975Z,2.60
2019-01-30T18:39:34.885Z,2.50
2019-01-30T18:42:06.251Z,2.50
2019-01-30T18:44:36.252Z,2.50
2019-01-30T18:47:06.541Z,2.50
2019-01-30T18:49:36.420Z,2.50
2019-01-30T18:52:08.157Z,2.40
2019-01-30T18:54:38.280Z,2.40
2019-01-30T18:57:08.319Z,2.30
2019-01-30T18:59:39.565Z,2.40
2019-01-30T19:02:09.578Z,2.30
2019-01-30T19:04:39.605Z,2.30
2019-01-30T19:07:14.088Z,2.30
2019-01-30T19:09:44.225Z,2.20
2019-01-30T19:12:14.742Z,2.30
2019-01-30T19:14:45.097Z,2.20
2019-01-30T19:17:16.920Z,2.20
2019-01-30T19:19:46.704Z,2.10
2019-01-30T19:22:16.603Z,2.10
2019-01-30T19:24:46.847Z,2.10
2019-01-30T19:27:17.204Z,2.10
2019-01-30T19:29:47.086Z,2.10
2019-01-30T19:32:17.030Z,2.00
2019-01-30T19:34:46.991Z,2.10
2019-01-30T19:37:17.817Z,2.00
2019-01-30T19:39:47.638Z,2.10
2019-01-30T19:42:18.674Z,2.00
2019-01-30T19:44:48.544Z,2.00
2019-01-30T19:47:18.446Z,1.90
2019-01-30T19:49:50.406Z,1.90
2019-01-30T19:52:20.341Z,1.90
2019-01-30T19:54:50.243Z,1.90
2019-01-30T19:57:20.344Z,1.90
2019-01-30T19:59:50.359Z,2.00
2019-01-30T20:02:20.374Z,2.00
2019-01-30T20:04:50.273Z,2.00
2019-01-30T20:07:20.335Z,1.90
2019-01-30T20:09:50.234Z,1.80
2019-01-30T20:12:20.213Z,1.90
2019-01-30T20:14:50.486Z,1.80
2019-01-30T20:17:20.541Z,1.80
2019-01-30T20:19:50.494Z,1.70
2019-01-30T20:22:20.768Z,1.60
2019-01-30T20:24:50.662Z,1.70
2019-01-30T20:27:20.587Z,1.70
2019-01-30T20:29:50.470Z,1.70
2019-01-30T20:32:20.396Z,1.70
2019-01-30T20:34:50.358Z,1.60
2019-01-30T20:37:26.569Z,1.60
2019-01-30T20:39:56.779Z,1.70
2019-01-30T20:42:26.751Z,1.70
2019-01-30T20:44:56.647Z,1.70
2019-01-30T20:47:26.597Z,1.70
2019-01-30T20:49:56.797Z,1.70
2019-01-30T20:52:27.132Z,1.60
2019-01-30T20:54:59.927Z,1.60
2019-01-30T20:57:30.514Z,1.50
2019-01-30T21:00:01.251Z,1.60
2019-01-30T21:02:31.107Z,1.30
2019-01-30T21:05:01.018Z,1.40
2019-01-30T21:07:37.115Z,1.50
2019-01-30T21:10:02.529Z,1.40
2019-01-30T21:12:32.427Z,1.40
2019-01-30T21:15:02.429Z,1.30
2019-01-30T21:17:32.304Z,1.30
2019-01-30T21:20:03.451Z,1.50
2019-01-30T21:22:33.347Z,1.40
2019-01-30T21:25:03.368Z,1.70
2019-01-30T21:27:33.312Z,2.10
2019-01-30T21:30:03.289Z,2.60
2019-01-30T21:32:33.293Z,2.10
2019-01-30T21:35:06.609Z,2.00
2019-01-30T21:37:36.661Z,1.70
2019-01-30T21:40:09.776Z,1.50
2019-01-30T21:42:42.374Z,1.30
2019-01-30T21:45:15.688Z,1.10
2019-01-30T21:47:45.877Z,1.10
2019-01-30T21:50:16.924Z,1.30
2019-01-30T21:52:47.263Z,1.20
2019-01-30T21:55:20.057Z,1.20
2019-01-30T21:57:50.196Z,1.30
2019-01-30T22:00:23.212Z,1.20
2019-01-30T22:02:53.466Z,1.30
2019-01-30T22:05:23.882Z,1.00
2019-01-30T22:08:00.971Z,1.30
2019-01-30T22:10:30.647Z,1.10
2019-01-30T22:13:00.658Z,1.10
2019-01-30T22:15:30.559Z,1.00
2019-01-30T22:18:00.437Z,1.10
2019-01-30T22:20:30.568Z,1.00
2019-01-30T22:23:00.629Z,0.90
2019-01-30T22:25:30.719Z,0.90
2019-01-30T22:28:00.673Z,1.10
2019-01-30T22:30:33.916Z,0.90
2019-01-30T22:33:04.288Z,0.90
2019-01-30T22:35:34.385Z,0.90
2019-01-30T22:38:12.323Z,0.90
2019-01-30T22:40:36.625Z,0.90
2019-01-30T22:43:06.989Z,0.80
2019-01-30T22:45:37.130Z,0.60
2019-01-30T22:48:08.055Z,0.70
2019-01-30T22:50:38.092Z,0.70
2019-01-30T22:53:08.147Z,0.70
2019-01-30T22:55:38.308Z,0.70
2019-01-30T22:58:08.545Z,0.80
2019-01-30T23:01:16.482Z,1.00
2019-01-30T23:04:38.114Z,0.70
2019-01-30T23:07:29.322Z,0.70
2019-01-30T23:10:46.443Z,0.70
2019-01-30T23:13:57.794Z,0.70
2019-01-30T23:17:03.117Z,0.50
2019-01-30T23:20:05.885Z,0.50
2019-01-30T23:23:29.995Z,0.50
2019-01-30T23:26:24.635Z,0.60
2019-01-30T23:29:56.409Z,0.70
2019-01-30T23:33:21.775Z,0.70
2019-01-30T23:36:23.181Z,0.70
2019-01-30T23:39:59.830Z,0.50
2019-01-30T23:43:17.856Z,0.50
2019-01-30T23:46:42.434Z,0.60
2019-01-30T23:50:12.821Z,0.60
2019-01-30T23:53:40.323Z,0.60
2019-01-30T23:56:47.134Z,0.50
2019-01-30T23:59:36.326Z,0.60
